Aérodrome :
LOGIN :

S'inscrire | Disclaimer

   EN    FR    IT 

 










Légende :    VFR   VFR Marginal   IFR   IFR Intensif   IFR Très Intensif
Visi : 
Plafond : 
>= 8 km
>= 3000ft
5 à 8 km
1000 à 3000 ft
1500m à 5 km
500 à 1000 ft
800 à 1500m
200 à 500 ft
< 800m
< 200 ft
Symboles :   Orages  Brouillard  Fortes neiges  Fortes précipitations  Vent > 20 kt
SIGMETs :   Divers  Orages  Givrage  Turbulence  Onde Orograph.  Cendres Volcan.







- Altitude de l'aérodrome : 1202 ft
- Code IATA : IGS


ETSI - Ingolstadt

DERNIER METAR :
  • 211220Z 25013KT 9999 FEW070 BKN300 29/12 Q1011 BLU+

METARs EXPIRÉS :
  • 211120Z 21006KT 9999 BKN280 28/13 Q1012 BLU+FCST CANCEL
  • 211020Z 25006KT 9999 BKN280 26/14 Q1013 BLU+BLU+
  • 210920Z 26004KT 9999 FEW250 BKN300 23/14 Q1014 BLU+BLU+

TAF TAF ETSI
Valide du 21 à 11h jusqu'au 21 à 20h UTC


211015Z 2111/2120 26010KT 9999 NSW FEW060 BKN240
BECMG 2112/2115 27012KT 9999 NSW SCT060 BKN100 BKN200
TEMPO 2115/2120 28012G25KT 8000 -RA SCT030 BKN060 OVC100 CANCEL 1100
Pas de NOTAMs connus pour ce terrain.



MET'MAP, la Météo Aéronautique d'un coup d'oeil ! - Copyright ORBIFLY Décembre 2007 - Disclaimer

ORBIFLY MET'MAP TEAM :

Programmation & Développement : Alexandra Zaïnal
Conception & Développement : Baudouin d'Aumeries
Co-Programmation & Développement : Marc-Olivier Méhu
Soutien technique & logistique : Manuel Goepfert

Contact : metmap@orbifly.com




SOURCES & CREDITS :

   NOAA